Flight Track Log - Related Links

Times and Time Zones

All times are in EDT time to prevent confusion due to time zone crossing. See the BAW826 flight status page for this flight to view local times or setup timezone preferences in your user account.

Time Position Orientation Groundspeed Altitude Reporting Facility
EDT Latitude Longitude Course Direction KTS MPH feet Rate Location/Type
Thu 05:27:26 PM 51.4776 -0.4850 269° West 172 198 200  Level FlightAware UK
Thu 05:27:44 PM 51.4773 -0.5041 269° West 194 223 700 6,000 Climbing FlightAware UK
Thu 05:27:47 PM 51.4772 -0.5067 269° West 159 183 2,300 10,800 Climbing FlightAware ADS-B
Thu 05:27:54 PM 51.4771 -0.5147 269° West 171 197 2,500 1,875 Climbing FlightAware ADS-B
Thu 05:28:03 PM 51.4768 -0.5272 268° West 184 212 2,800 1,714 Climbing FlightAware ADS-B
Thu 05:28:08 PM 51.4765 -0.5346 266° West 191 220 2,900 1,800 Climbing FlightAware ADS-B
Thu 05:28:13 PM 51.4758 -0.5412 260° West 197 227 3,100 2,400 Climbing FlightAware ADS-B
Thu 05:28:23 PM 51.4738 -0.5561 258° West 210 242 3,500 2,880 Climbing FlightAware ADS-B
Thu 05:28:38 PM 51.4702 -0.5798 256° West 220 253 4,300 3,677 Climbing FlightAware ADS-B
Thu 05:28:54 PM 51.4662 -0.6046 255° West 221 254 5,400 4,065 Climbing FlightAware ADS-B
Thu 05:29:09 PM 51.4623 -0.6290 256° West 224 258 6,400 3,677 Climbing FlightAware ADS-B
Thu 05:29:25 PM 51.4584 -0.6539 256° West 227 261 7,300 3,652 Climbing FlightAware ADS-B
Thu 05:29:32 PM 51.4564 -0.6661 255° West 228 262 7,800 4,200 Climbing FlightAware ADS-B
Thu 05:29:35 PM 51.4560 -0.6711 263° West 229 264 8,000 3,429 Climbing FlightAware ADS-B
Thu 05:29:39 PM 51.4558 -0.6773 267° West 231 266 8,200 3,429 Climbing FlightAware ADS-B
Thu 05:29:42 PM 51.4560 -0.6826 273° West 233 268 8,400 4,000 Climbing FlightAware ADS-B
Thu 05:29:45 PM 51.4568 -0.6884 282° West 236 272 8,600 4,000 Climbing FlightAware ADS-B
Thu 05:29:48 PM 51.4579 -0.6940 288° West 239 275 8,800 3,273 Climbing FlightAware ADS-B
Thu 05:29:56 PM 51.4618 -0.7070 296° West 246 283 9,200 2,750 Climbing FlightAware ADS-B
Thu 05:30:12 PM 51.4710 -0.7323 300° West 262 302 9,900 -667 Climbing FlightAware ADS-B
Thu 05:30:32 PM 51.4852 -0.7702 300° West 324 373 8,800 1,304 Descending FlightAware UK
Thu 05:30:35 PM 51.4859 -0.7727 300° West 295 339 10,400 1,333 Climbing FlightAware ADS-B
Thu 05:30:50 PM 51.4976 -0.8056 300° West 352 405 9,200 1,200 Descending FlightAware UK
Thu 05:31:05 PM 51.5067 -0.8346 300° West 332 382 11,000 1,200 Climbing FlightAware ADS-B
Thu 05:31:20 PM 51.5182 -0.8717 300° West 388 447 9,800 2,323 Descending FlightAware UK
Thu 05:31:36 PM 51.5290 -0.9056 300° West 348 400 12,200 2,500 Climbing FlightAware ADS-B
Thu 05:31:56 PM 51.5446 -0.9531 300° West 378 435 11,300 1,600 Descending FlightAware UK
Thu 05:32:06 PM 51.5515 -0.9730 300° West 340 391 13,000 4,636 Climbing FlightAware ADS-B
Thu 05:32:18 PM 51.5598 -0.9978 298° West 339 390 13,000  Level FlightAware ADS-B
Thu 05:32:24 PM 51.5637 -1.0113 295° West 336 387 13,000  Level FlightAware ADS-B
Thu 05:32:30 PM 51.5672 -1.0265 290° West 332 382 13,000 -3,692 Level FlightAware ADS-B
Thu 05:32:50 PM 51.5743 -1.0777 290° West 380 437 11,400  Descending FlightAware UK
Thu 05:32:59 PM 51.5765 -1.0961 290° West 334 384 13,000  Climbing FlightAware ADS-B
Thu 05:33:14 PM 51.5812 -1.1356 290° West 380 437 11,400  Descending FlightAware UK
Thu 05:33:29 PM 51.5846 -1.1701 290° West 341 392 13,000  Climbing FlightAware ADS-B
Thu 05:33:44 PM 51.5888 -1.2104 290° West 384 442 11,400  Descending FlightAware UK
Thu 05:34:00 PM 51.5929 -1.2471 290° West 341 392 13,000 833 Climbing FlightAware ADS-B
Thu 05:34:20 PM 51.5984 -1.3002 290° West 388 447 11,900 1,800 Descending FlightAware UK
Thu 05:34:30 PM 51.6008 -1.3216 290° West 342 394 13,900 3,200 Climbing FlightAware ADS-B
Thu 05:34:50 PM 51.6071 -1.3743 290° West 392 451 13,500 3,000 Descending FlightAware UK
Thu 05:35:00 PM 51.6101 -1.3971 290° West 343 395 15,400 2,400 Climbing FlightAware ADS-B
Thu 05:35:20 PM 51.6164 -1.4484 290° West 402 463 14,700 2,710 Descending FlightAware UK
Thu 05:35:31 PM 51.6190 -1.4736 290° West 347 399 16,800 7,579 Climbing FlightAware ADS-B
Thu 05:35:39 PM 51.6216 -1.4939 282° West 349 402 17,100 1,846 Climbing FlightAware ADS-B
Thu 05:35:44 PM 51.6240 -1.5065 287° West 353 406 17,200 2,143 Climbing FlightAware ADS-B
Thu 05:35:53 PM 51.6298 -1.5290 293° West 360 414 17,600 -1,250 Climbing FlightAware ADS-B
Thu 05:36:08 PM 51.6424 -1.5664 293° West 412 474 16,700 3,400 Descending FlightAware UK
Thu 05:36:23 PM 51.6538 -1.6000 293° West 353 406 19,300 3,600 Climbing FlightAware ADS-B
Thu 05:36:38 PM 51.6661 -1.6357 293° West 408 470 18,500 2,516 Descending FlightAware UK
Thu 05:36:54 PM 51.6774 -1.6697 293° West 355 409 20,600 2,333 Climbing FlightAware ADS-B
Thu 05:37:14 PM 51.6942 -1.7191 293° West 420 483 19,900 2,400 Descending FlightAware UK
Thu 05:37:24 PM 51.7013 -1.7407 293° West 356 410 21,800 2,000 Climbing FlightAware ADS-B
Thu 05:37:44 PM 51.7174 -1.7885 293° West 424 488 20,900 1,935 Descending FlightAware UK
Thu 05:37:55 PM 51.7253 -1.8116 293° West 361 415 22,800 1,800 Climbing FlightAware ADS-B
Thu 05:38:14 PM 51.7412 -1.8596 293° West 430 495 21,800 1,800 Descending FlightAware UK
Thu 05:38:25 PM 51.7493 -1.8845 293° West 366 421 23,700 2,000 Climbing FlightAware ADS-B
Thu 05:38:44 PM 51.7655 -1.9324 293° West 438 504 22,800 2,063 Descending FlightAware UK
Thu 05:38:57 PM 51.7751 -1.9618 293° West 367 422 24,800 1,600 Climbing FlightAware ADS-B
Thu 05:39:14 PM 51.7893 -2.0044 293° West 438 504 23,600 1,200 Descending FlightAware UK
Thu 05:39:27 PM 51.7995 -2.0357 293° West 378 435 25,400 800 Climbing FlightAware ADS-B
Thu 05:39:44 PM 51.8142 -2.0795 293° West 444 511 24,000 968 Descending FlightAware UK
Thu 05:39:58 PM 51.8247 -2.1120 293° West 390 449 25,900 1,448 Climbing FlightAware ADS-B
Thu 05:40:13 PM 51.8394 -2.1561 293° West 452 520 24,700 1,400 Descending FlightAware UK
Thu 05:40:28 PM 51.8509 -2.1909 293° West 395 455 26,600 1,600 Climbing FlightAware ADS-B
Thu 05:40:43 PM 51.8651 -2.2339 293° West 454 522 25,500 2,129 Descending FlightAware UK
Thu 05:40:59 PM 51.8767 -2.2694 293° West 388 447 27,700 1,833 Climbing FlightAware ADS-B
Thu 05:41:19 PM 51.8955 -2.3263 293° West 450 518 26,600 1,600 Descending FlightAware UK
Thu 05:41:29 PM 51.9026 -2.3486 293° West 390 449 28,500 2,000 Climbing FlightAware ADS-B
Thu 05:41:49 PM 51.9208 -2.4032 293° West 448 516 27,600 1,355 Descending FlightAware UK
Thu 05:42:00 PM 51.9288 -2.4282 293° West 394 453 29,200 800 Climbing FlightAware ADS-B
Thu 05:42:19 PM 51.9460 -2.4800 293° West 460 529 28,000 1,161 Descending FlightAware UK
Thu 05:42:31 PM 51.9550 -2.5081 293° West 398 458 29,800 800 Climbing FlightAware ADS-B
Thu 05:42:49 PM 51.9719 -2.5596 293° West 458 527 28,400 387 Descending FlightAware UK
Thu 05:43:02 PM 51.9819 -2.5907 293° West 396 456 30,000  Climbing FlightAware ADS-B
Thu 05:43:19 PM 51.9972 -2.6373 293° West 454 522 28,400 -2,743 Descending FlightAware UK
Thu 05:43:37 PM 52.0120 -2.6833 298° West 456 525 28,400  Level FlightAware UK
Thu 05:43:55 PM 52.0269 -2.7297 297° West 458 527 28,400 4,364 Level FlightAware UK
Thu 05:43:59 PM 52.0293 -2.7375 297° West 396 456 30,000  Climbing FlightAware ADS-B
Thu 05:44:19 PM 52.0469 -2.7921 297° West 458 527 28,400 -167 Descending FlightAware UK
Thu 05:44:35 PM 52.0587 -2.8297 297° West 391 450 29,900  Climbing FlightAware ADS-B
Thu 05:44:55 PM 52.0771 -2.8862 297° West 456 525 28,400 200 Descending FlightAware UK
Thu 05:45:05 PM 52.0842 -2.9086 297° West 394 453 30,000  Climbing FlightAware ADS-B
Thu 05:45:25 PM 52.1020 -2.9642 297° West 458 527 28,400  Descending FlightAware UK
Thu 05:45:37 PM 52.1113 -2.9935 297° West 395 455 30,000  Climbing FlightAware ADS-B
Thu 05:45:55 PM 52.1272 -3.0432 297° West 462 532 28,400  Descending FlightAware UK
Thu 05:46:07 PM 52.1367 -3.0730 297° West 395 455 30,000  Climbing FlightAware ADS-B
Thu 05:46:25 PM 52.1524 -3.1225 297° West 460 529 28,400  Descending FlightAware UK
Thu 05:46:39 PM 52.1627 -3.1556 297° West 397 457 30,000 200 Climbing FlightAware ADS-B
Thu 05:46:55 PM 52.1775 -3.2020 297° West 454 522 28,500  Descending FlightAware UK
Thu 05:47:10 PM 52.1884 -3.2362 297° West 386 444 30,000  Climbing FlightAware ADS-B
Thu 05:47:25 PM 52.2016 -3.2784 297° West 446 513 28,500 -2,727 Descending FlightAware UK
Thu 05:47:43 PM 52.2164 -3.3250 297° West 448 516 28,500 4,737 Level FlightAware UK
Thu 05:47:44 PM 52.2159 -3.3237 297° West 383 441 30,000 -333 Climbing FlightAware ADS-B
Thu 05:48:01 PM 52.2308 -3.3714 297° West 448 516 28,400  Descending FlightAware UK
Thu 05:48:16 PM 52.2418 -3.4067 297° West 385 443 30,000  Climbing FlightAware ADS-B
Thu 05:48:31 PM 52.2549 -3.4482 297° West 448 516 28,400 -188 Descending FlightAware UK
Thu 05:48:48 PM 52.2678 -3.4892 297° West 394 453 29,900 -667 Climbing FlightAware ADS-B
Thu 05:49:07 PM 52.2846 -3.5430 297° West 448 516 28,000 -1,200 Descending FlightAware UK
Thu 05:49:18 PM 52.2924 -3.5693 297° West 394 453 29,300 -1,400 Climbing FlightAware ADS-B
Thu 05:49:37 PM 52.3095 -3.6229 297° West 446 513 27,300 -1,500 Descending FlightAware UK
Thu 05:49:50 PM 52.3194 -3.6554 297° West 391 450 28,500 -1,600 Climbing FlightAware ADS-B
Thu 05:50:07 PM 52.3337 -3.7014 297° West 446 513 26,500 -1,548 Descending FlightAware UK
Thu 05:50:21 PM 52.3438 -3.7350 297° West 380 437 27,700 -1,400 Climbing FlightAware ADS-B
Thu 05:50:37 PM 52.3571 -3.7771 297° West 436 502 25,800 -1,400 Descending FlightAware UK
Thu 05:50:51 PM 52.3669 -3.8094 297° West 360 414 27,000 -1,400 Climbing FlightAware ADS-B
Thu 05:51:07 PM 52.3792 -3.8490 297° West 424 488 25,100 -4,059 Descending FlightAware UK
Thu 05:51:25 PM 52.3922 -3.8908 297° West 418 481 24,700 1,455 Descending FlightAware UK
Thu 05:51:40 PM 52.4017 -3.9218 297° West 349 402 25,900 -1,400 Climbing FlightAware ADS-B
Thu 05:51:55 PM 52.4131 -3.9587 297° West 414 476 24,000 -4,313 Descending FlightAware UK
Thu 05:52:12 PM 52.4253 -3.9989 297° West 414 476 23,600 -1,543 Descending FlightAware UK
Thu 05:52:30 PM 52.4377 -4.0394 297° West 412 474 23,100 2,400 Descending FlightAware UK
Thu 05:52:37 PM 52.4400 -4.0470 297° West 330 380 24,600 -1,440 Climbing FlightAware ADS-B
Thu 05:52:55 PM 52.4542 -4.0935 297° West 408 470 22,500 -4,286 Descending FlightAware UK
Thu 05:53:12 PM 52.4662 -4.1332 296° West 406 467 22,100 3,000 Descending FlightAware UK
Thu 05:53:17 PM 52.4670 -4.1370 296° West 329 379 23,600 -1,440 Climbing FlightAware ADS-B
Thu 05:53:37 PM 52.4825 -4.1872 296° West 402 463 21,500 -4,054 Descending FlightAware UK
Thu 05:53:54 PM 52.4946 -4.2269 296° West 402 463 21,100 2,400 Descending FlightAware UK
Thu 05:54:02 PM 52.4970 -4.2350 296° West 329 379 22,500 -1,500 Climbing FlightAware ADS-B
Thu 05:54:18 PM 52.5108 -4.2805 296° West 398 458 20,500 -4,412 Descending FlightAware UK
Thu 05:54:36 PM 52.5229 -4.3206 296° West 394 453 20,000 2,500 Descending FlightAware UK
Thu 05:54:42 PM 52.5240 -4.3250 296° West 326 375 21,500 -1,500 Climbing FlightAware ADS-B
Thu 05:55:00 PM 52.5391 -4.3739 296° West 390 449 19,400 -4,167 Descending FlightAware UK
Thu 05:55:18 PM 52.5511 -4.4137 296° West 390 449 19,000 3,000 Descending FlightAware UK
Thu 05:55:22 PM 52.5500 -4.4110 296° West 326 375 20,500 -1,250 Climbing FlightAware ADS-B
Thu 05:55:42 PM 52.5671 -4.4670 296° West 384 442 18,500 -3,316 Descending FlightAware UK
Thu 05:56:00 PM 52.5790 -4.5068 296° West 386 444 18,400 3,600 Descending FlightAware UK
Thu 05:56:07 PM 52.5810 -4.5140 296° West 329 379 20,000  Climbing FlightAware ADS-B
Thu 05:56:24 PM 52.5952 -4.5600 296° West 388 447 18,400 -2,743 Descending FlightAware UK
Thu 05:56:42 PM 52.6072 -4.6003 296° West 388 447 18,400 4,174 Level FlightAware UK
Thu 05:56:47 PM 52.6080 -4.6050 296° West 327 376 20,000  Climbing FlightAware ADS-B
Thu 05:57:06 PM 52.6231 -4.6540 296° West 386 444 18,400 -2,595 Descending FlightAware UK
Thu 05:57:24 PM 52.6350 -4.6939 296° West 384 442 18,400 4,571 Level FlightAware UK
Thu 05:57:27 PM 52.6330 -4.6850 296° West 323 372 20,000 -667 Climbing FlightAware ADS-B
Thu 05:57:42 PM 52.6468 -4.7337 296° West 384 442 18,200 -4,182 Descending FlightAware UK
Thu 05:58:00 PM 52.6605 -4.7707 301° West 380 437 17,700 1,600 Descending FlightAware UK
Thu 05:58:12 PM 52.6650 -4.7800 301° West 319 367 19,000 -2,600 Climbing FlightAware ADS-B
Thu 05:58:30 PM 52.6917 -4.8219 301° West 374 430 16,400 -5,333 Descending FlightAware UK
Thu 05:58:48 PM 52.7111 -4.8515 317° Northwest 370 426 15,800 2,727 Descending FlightAware UK
Thu 05:58:52 PM 52.7070 -4.8450 317° Northwest 309 356 17,400 -2,000 Climbing FlightAware ADS-B
Thu 05:59:12 PM 52.7367 -4.8904 317° Northwest 362 417 15,000 -4,737 Descending FlightAware UK
Thu 05:59:30 PM 52.7552 -4.9189 317° Northwest 360 414 14,400 2,400 Descending FlightAware UK
Thu 05:59:37 PM 52.7540 -4.9170 317° Northwest 305 351 16,000 -1,250 Climbing FlightAware ADS-B
Thu 05:59:54 PM 52.7797 -4.9570 317° Northwest 352 405 13,900 -4,114 Descending FlightAware UK
Thu 06:00:12 PM 52.7976 -4.9848 317° Northwest 340 391 13,600 3,391 Descending FlightAware UK
Thu 06:00:17 PM 52.7950 -4.9800 317° Northwest 289 333 15,200 -1,750 Climbing FlightAware ADS-B
Thu 06:00:36 PM 52.8204 -5.0203 317° Northwest 334 384 12,900 -4,703 Descending FlightAware UK
Thu 06:00:54 PM 52.8373 -5.0465 317° Northwest 326 375 12,300 2,857 Descending FlightAware UK
Thu 06:00:57 PM 52.8340 -5.0420 317° Northwest 274 315 13,900 -2,000 Climbing FlightAware ADS-B
Thu 06:01:12 PM 52.8541 -5.0730 317° Northwest 324 373 11,700 -4,909 Descending FlightAware UK
Thu 06:01:30 PM 52.8708 -5.0993 316° Northwest 318 366 11,200 1,400 Descending FlightAware UK
Thu 06:01:42 PM 52.8790 -5.1120 316° Northwest 278 320 12,400 -2,000 Climbing FlightAware ADS-B
Thu 06:02:00 PM 52.8987 -5.1431 316° Northwest 316 364 10,200 -4,667 Descending FlightAware UK
Thu 06:02:18 PM 52.9154 -5.1694 316° Northwest 318 366 9,600 2,727 Descending FlightAware UK
Thu 06:02:22 PM 52.9120 -5.1640 316° Northwest 276 318 11,200 -2,000 Climbing FlightAware ADS-B
Thu 06:02:42 PM 52.9377 -5.2044 316° Northwest 316 364 8,800 -4,737 Descending FlightAware UK
Thu 06:03:00 PM 52.9541 -5.2302 317° Northwest 314 361 8,200 3,000 Descending FlightAware UK
Thu 06:03:02 PM 52.9520 -5.2270 317° Northwest 268 308 9,800 -1,000 Climbing FlightAware ADS-B
Thu 06:03:18 PM 52.9706 -5.2560 317° Northwest 306 352 7,900 -1,000 Descending FlightAware UK
Thu 06:03:32 PM 52.9790 -5.2690 317° Northwest 255 293 9,300 -1,000 Climbing FlightAware ADS-B
Thu 06:03:36 PM 52.9870 -5.2814 317° Northwest 300 345 7,600 -7,125 Descending FlightAware UK
Thu 06:03:48 PM 52.9967 -5.2965 317° Northwest 290 334 7,400 3,231 Descending FlightAware UK
Thu 06:04:02 PM 53.0050 -5.3090 317° Northwest 234 269 9,000 200 Climbing FlightAware ADS-B
Thu 06:04:18 PM 53.0202 -5.3339 317° Northwest 282 325 7,500  Descending FlightAware UK
Thu 06:04:27 PM 53.0240 -5.3390 317° Northwest 242 278 9,000 -250 Climbing FlightAware ADS-B
Thu 06:04:42 PM 53.0396 -5.3643 317° Northwest 282 325 7,400  Descending FlightAware UK
Thu 06:04:57 PM 53.0500 -5.3800 317° Northwest 242 278 9,000 200 Climbing FlightAware ADS-B
Thu 06:05:12 PM 53.0640 -5.4030 317° Northwest 282 325 7,500  Descending FlightAware UK
Thu 06:05:27 PM 53.0740 -5.4190 317° Northwest 244 281 9,000  Climbing FlightAware ADS-B
Thu 06:05:42 PM 53.0886 -5.4419 317° Northwest 284 327 7,500  Descending FlightAware UK
Thu 06:05:52 PM 53.0940 -5.4500 317° Northwest 244 281 9,000 3,600 Climbing FlightAware ADS-B
Thu 06:06:07 PM 53.1060 -5.4700 315° West 243 280 9,000 -3,375 Level FlightAware ADS-B
Thu 06:06:24 PM 53.1227 -5.4962 315° West 282 325 7,200 -960 Descending FlightAware UK
Thu 06:06:32 PM 53.1270 -5.5030 315° West 235 270 8,600 -1,750 Climbing FlightAware ADS-B
Thu 06:06:48 PM 53.1421 -5.5273 315° West 280 322 6,500 -1,800 Descending FlightAware UK
Thu 06:07:02 PM 53.1500 -5.5400 315° West 233 268 7,700 1,655 Climbing FlightAware ADS-B
Thu 06:07:17 PM 53.1630 -5.5600 315° West 234 269 7,300 -7,500 Descending FlightAware ADS-B
Thu 06:07:18 PM 53.1661 -5.5656 315° West 276 318 5,700 -6,316 Descending FlightAware UK
Thu 06:07:36 PM 53.1805 -5.5886 315° West 274 315 5,300 2,500 Descending FlightAware UK
Thu 06:07:42 PM 53.1830 -5.5920 315° West 229 264 6,700 -1,500 Climbing FlightAware ADS-B
Thu 06:08:00 PM 53.1993 -5.6192 315° West 272 313 4,700 -1,400 Descending FlightAware UK
Thu 06:08:12 PM 53.2050 -5.6280 315° West 227 261 6,000 -1,400 Climbing FlightAware ADS-B
Thu 06:08:30 PM 53.2227 -5.6572 315° West 268 308 4,000 -1,400 Descending FlightAware UK
Thu 06:08:42 PM 53.2290 -5.6650 315° West 229 264 5,300 -1,200 Climbing FlightAware ADS-B
Thu 06:09:00 PM 53.2459 -5.6949 315° West 264 304 3,400 -960 Descending FlightAware UK
Thu 06:09:07 PM 53.2470 -5.6950 315° West 222 255 4,900 -1,000 Climbing FlightAware ADS-B
Thu 06:09:24 PM 53.2641 -5.7245 315° West 1 1 3,000 -1,000 Descending FlightAware UK
Thu 06:09:37 PM 53.2690 -5.7310 315° West 213 245 4,400 1,256 Climbing FlightAware ADS-B
Thu 06:10:07 PM 53.2910 -5.7660 316° Northwest 220 253 3,900 -764 Descending FlightAware ADS-B
Thu 06:10:32 PM 53.3090 -5.7950 316° Northwest 215 247 3,700 -545 Descending FlightAware ADS-B
Thu 06:11:02 PM 53.3270 -5.8350 307° West 204 235 3,400 -327 Descending FlightAware ADS-B
Thu 06:11:27 PM 53.3400 -5.8650 306° West 176 203 3,400  Level FlightAware ADS-B
Thu 06:11:57 PM 53.3540 -5.8980 305° West 173 199 3,400  Level FlightAware ADS-B
Thu 06:12:22 PM 53.3650 -5.9240 305° West 150 173 3,400 -545 Level FlightAware ADS-B
Thu 06:12:52 PM 53.3760 -5.9520 303° West 146 168 2,900 -933 Descending FlightAware ADS-B
Thu 06:13:07 PM 53.3820 -5.9650 308° West 142 163 2,700 -600 Descending FlightAware ADS-B
Thu 06:13:42 PM 53.3970 -5.9970 308° West 144 166 2,400 -327 Descending FlightAware ADS-B
Thu 06:14:02 PM 53.4050 -6.0160 305° West 147 169 2,400  Level FlightAware ADS-B
Thu 06:14:32 PM 53.4090 -6.0500 281° West 151 174 2,400  Level FlightAware ADS-B
Thu 06:15:12 PM 53.4120 -6.0970 276° West 145 167 2,400 -200 Level FlightAware ADS-B
Thu 06:15:32 PM 53.4130 -6.1170 275° West 131 151 2,200 -686 Descending FlightAware ADS-B
Thu 06:16:22 PM 53.4160 -6.1640 276° West 115 132 1,600 -675 Descending FlightAware ADS-B
Thu 06:16:52 PM 53.4170 -6.1910 274° West 117 135 1,300 -554 Descending FlightAware ADS-B
Thu 06:17:27 PM 53.4190 -6.2220 276° West 119 137 1,000 -300 Descending FlightAware ADS-B
Thu 06:17:52 PM 53.4200 -6.2420 275° West 119 137 1,000  Level FlightAware ADS-B
Thu 06:20:00 PM 53.4213 -6.2701 275° West  Level Estimated
Thu 06:21:00 PM 53.4213 -6.2701 45° Northeast  Level Estimated
Thu 06:22:00 PM 53.4213 -6.2701 315° West  Level Estimated
Thu 06:23:00 PM 53.4213 -6.2701 45° Northeast  Level Estimated
Thu 06:24:00 PM 53.4213 -6.2701 315° West  Level Estimated
Thu 06:25:00 PM 53.4213 -6.2701 45° Northeast  Level Estimated
Thu 06:26:00 PM 53.4213 -6.2701 315° West  Level Estimated
Thu 06:27:00 PM 53.4213 -6.2701 45° Northeast  Level Estimated
Thu 06:28:00 PM 53.4213 -6.2701 315° West  Level Estimated
Thu 06:29:00 PM 53.4213 -6.2701 45° Northeast  Level Estimated

Login

Don't have an account? Register now (free) for customized features, flight alerts, and more!